createdAt,value
2023-02-05T00:01:35.707Z,1.73
2023-02-05T00:04:02.887Z,2.45
2023-02-05T00:06:29.985Z,1.95
2023-02-05T00:08:58.315Z,2.25
2023-02-05T00:11:26.287Z,1.85
2023-02-05T00:13:53.558Z,1.15
2023-02-05T00:16:23.666Z,1.00
2023-02-05T00:18:50.946Z,1.50
2023-02-05T00:21:19.485Z,0.98
2023-02-05T00:23:48.327Z,1.00
2023-02-05T00:26:15.510Z,2.03
2023-02-05T00:28:42.674Z,1.50
2023-02-05T00:31:21.523Z,2.60
2023-02-05T00:33:50.661Z,1.15
2023-02-05T00:36:19.316Z,1.48
2023-02-05T00:38:47.440Z,1.50
2023-02-05T00:41:15.638Z,1.58
2023-02-05T00:43:44.068Z,1.38
2023-02-05T00:46:13.855Z,1.38
2023-02-05T00:48:42.478Z,1.88
2023-02-05T00:51:11.436Z,1.17
2023-02-05T00:53:39.366Z,1.65
2023-02-05T00:56:06.593Z,1.42
2023-02-05T00:58:34.101Z,1.30
2023-02-05T01:01:01.140Z,1.00
2023-02-05T01:03:28.236Z,1.55
2023-02-05T01:05:55.434Z,1.48
2023-02-05T01:08:22.698Z,3.25
2023-02-05T01:10:52.729Z,2.03
2023-02-05T01:13:19.816Z,1.30
2023-02-05T01:15:46.957Z,1.45
2023-02-05T01:18:14.034Z,1.45
2023-02-05T01:20:42.592Z,1.65
2023-02-05T01:23:10.716Z,0.90
2023-02-05T01:25:38.730Z,2.22
2023-02-05T01:28:07.065Z,2.17
2023-02-05T01:30:34.731Z,1.20
2023-02-05T01:33:03.686Z,2.25
2023-02-05T01:35:30.817Z,1.10
2023-02-05T01:37:57.827Z,3.55
2023-02-05T01:40:25.038Z,1.05
2023-02-05T01:42:52.151Z,1.60
2023-02-05T01:45:22.142Z,3.15
2023-02-05T01:47:53.640Z,3.97
2023-02-05T01:50:42.568Z,2.67
2023-02-05T01:53:15.081Z,1.00
2023-02-05T01:55:51.437Z,0.88
2023-02-05T01:58:18.596Z,2.22
2023-02-05T02:00:47.039Z,0.85
2023-02-05T02:03:15.817Z,1.30
2023-02-05T02:05:43.800Z,1.75
2023-02-05T02:08:13.169Z,1.23
2023-02-05T02:10:43.860Z,3.33
2023-02-05T02:13:12.683Z,0.77
2023-02-05T02:15:41.513Z,0.88
2023-02-05T02:18:28.013Z,1.95
2023-02-05T02:21:39.526Z,0.90
2023-02-05T02:24:17.030Z,1.20
2023-02-05T02:27:13.233Z,1.35
2023-02-05T02:30:18.183Z,4.88
2023-02-05T02:33:29.880Z,5.00
2023-02-05T02:36:23.086Z,1.40
2023-02-05T02:39:07.758Z,2.08
2023-02-05T02:41:42.117Z,1.30
2023-02-05T02:44:17.108Z,1.20
2023-02-05T02:46:55.893Z,2.22
2023-02-05T02:50:00.344Z,2.33
2023-02-05T02:52:29.046Z,3.40
2023-02-05T02:55:00.773Z,2.05
2023-02-05T02:57:29.637Z,1.02
2023-02-05T03:00:01.347Z,1.67
2023-02-05T03:02:33.350Z,2.25
2023-02-05T03:05:07.257Z,2.95
2023-02-05T03:07:45.069Z,2.50
2023-02-05T03:10:30.944Z,1.20
2023-02-05T03:12:58.132Z,1.20
2023-02-05T03:15:25.691Z,1.52
2023-02-05T03:17:55.095Z,1.85
2023-02-05T03:20:32.715Z,1.40
2023-02-05T03:22:59.944Z,1.98
2023-02-05T03:25:28.663Z,3.33
2023-02-05T03:27:57.208Z,1.23
2023-02-05T03:30:30.702Z,2.53
2023-02-05T03:33:14.304Z,1.00
2023-02-05T03:35:47.563Z,1.67
2023-02-05T03:38:23.227Z,5.95
2023-02-05T03:40:58.922Z,1.23
2023-02-05T03:43:49.302Z,1.00
2023-02-05T03:46:29.715Z,1.23
2023-02-05T03:49:03.745Z,1.80
2023-02-05T03:51:43.720Z,2.30
2023-02-05T03:54:21.622Z,1.30
2023-02-05T03:57:29.689Z,2.58
2023-02-05T03:59:58.353Z,2.13
2023-02-05T04:02:25.927Z,2.15
2023-02-05T04:04:53.014Z,0.88
2023-02-05T04:07:20.080Z,2.10
2023-02-05T04:09:47.101Z,1.45
2023-02-05T04:12:14.198Z,1.10
2023-02-05T04:14:41.204Z,1.15
2023-02-05T04:17:08.257Z,1.08
2023-02-05T04:19:35.599Z,1.00
2023-02-05T04:22:02.636Z,3.35
2023-02-05T04:24:29.770Z,0.90
2023-02-05T04:26:57.187Z,0.85
2023-02-05T04:29:24.231Z,1.20
2023-02-05T04:31:51.393Z,0.70
2023-02-05T04:34:18.442Z,1.33
2023-02-05T04:36:46.213Z,1.35
2023-02-05T04:39:13.330Z,3.10
2023-02-05T04:41:40.339Z,0.80
2023-02-05T04:44:07.405Z,2.70
2023-02-05T04:46:34.459Z,1.08
2023-02-05T04:49:01.541Z,1.80
2023-02-05T04:51:28.643Z,1.88
2023-02-05T04:53:55.676Z,1.30
2023-02-05T04:56:22.665Z,0.80
2023-02-05T04:58:49.675Z,1.70
2023-02-05T05:01:19.807Z,2.10
2023-02-05T05:03:47.089Z,1.27
2023-02-05T05:06:15.745Z,1.45
2023-02-05T05:08:42.909Z,5.97
2023-02-05T05:11:13.642Z,4.00
2023-02-05T05:13:40.828Z,1.85
2023-02-05T05:16:11.190Z,1.63
2023-02-05T05:18:39.447Z,1.00
2023-02-05T05:21:06.674Z,2.75
2023-02-05T05:23:34.502Z,1.33
2023-02-05T05:26:08.177Z,2.35
2023-02-05T05:28:35.914Z,1.55
2023-02-05T05:31:17.054Z,1.50
2023-02-05T05:33:44.159Z,1.80
2023-02-05T05:36:11.537Z,1.65
2023-02-05T05:38:39.317Z,5.38
2023-02-05T05:41:25.188Z,4.15
2023-02-05T05:43:54.333Z,4.57
2023-02-05T05:46:25.313Z,2.78
2023-02-05T05:48:55.452Z,3.80
2023-02-05T05:51:23.607Z,1.45
2023-02-05T05:53:51.101Z,0.90
2023-02-05T05:56:19.058Z,2.58
2023-02-05T05:58:47.124Z,4.88
2023-02-05T06:01:16.081Z,1.95
2023-02-05T06:03:43.375Z,3.50
2023-02-05T06:06:12.859Z,2.10
2023-02-05T06:08:40.575Z,1.60
2023-02-05T06:11:07.668Z,0.90
2023-02-05T06:13:35.231Z,1.10
2023-02-05T06:16:02.634Z,2.15
2023-02-05T06:18:29.887Z,1.10
2023-02-05T06:20:56.883Z,1.40
2023-02-05T06:23:23.908Z,1.95
2023-02-05T06:25:50.970Z,1.30
2023-02-05T06:28:18.124Z,3.25
2023-02-05T06:30:45.428Z,1.85
2023-02-05T06:33:13.229Z,2.15
2023-02-05T06:35:41.430Z,1.88
2023-02-05T06:38:08.752Z,1.30
2023-02-05T06:40:36.098Z,1.55
2023-02-05T06:43:03.340Z,3.08
2023-02-05T06:45:30.471Z,2.45
2023-02-05T06:47:58.420Z,5.75
2023-02-05T06:50:26.060Z,2.28
2023-02-05T06:52:53.193Z,28.10
2023-02-05T06:55:20.383Z,2.00
2023-02-05T06:57:47.422Z,0.90
2023-02-05T07:00:15.099Z,0.88
2023-02-05T07:02:42.347Z,1.80
2023-02-05T07:05:09.722Z,1.33
2023-02-05T07:07:36.794Z,1.65
2023-02-05T07:10:04.499Z,1.98
2023-02-05T07:12:32.068Z,3.10
2023-02-05T07:14:59.088Z,3.80
2023-02-05T07:17:26.355Z,1.65
2023-02-05T07:19:53.435Z,3.10
2023-02-05T07:22:20.540Z,1.95
2023-02-05T07:24:47.815Z,1.60
2023-02-05T07:27:14.883Z,1.70
2023-02-05T07:29:41.995Z,1.42
2023-02-05T07:32:09.097Z,2.15
2023-02-05T07:34:36.172Z,4.18
2023-02-05T07:37:03.245Z,1.60
2023-02-05T07:39:30.407Z,4.45
2023-02-05T07:41:57.430Z,2.60
2023-02-05T07:44:24.473Z,3.20
2023-02-05T07:46:52.117Z,1.60
2023-02-05T07:49:19.229Z,1.73
2023-02-05T07:51:46.472Z,4.20
2023-02-05T07:54:14.955Z,2.67
2023-02-05T07:56:42.648Z,3.00
2023-02-05T07:59:09.992Z,1.63
2023-02-05T08:01:37.281Z,2.50
2023-02-05T08:04:04.453Z,4.25
2023-02-05T08:06:33.402Z,5.65
2023-02-05T08:09:00.439Z,6.95
2023-02-05T08:11:27.760Z,3.60
2023-02-05T08:13:54.864Z,3.03
2023-02-05T08:16:22.081Z,7.03
2023-02-05T08:18:51.002Z,2.90
2023-02-05T08:21:19.207Z,1.40
2023-02-05T08:23:46.343Z,2.28
2023-02-05T08:26:15.317Z,1.13
2023-02-05T08:28:43.074Z,1.42
2023-02-05T08:31:16.159Z,1.70
2023-02-05T08:33:43.664Z,3.00
2023-02-05T08:36:11.240Z,4.75
2023-02-05T08:38:38.358Z,2.95
2023-02-05T08:41:13.851Z,6.07
2023-02-05T08:43:42.882Z,6.75
2023-02-05T08:46:11.334Z,2.20
2023-02-05T08:48:38.474Z,4.53
2023-02-05T08:51:06.334Z,4.25
2023-02-05T08:53:33.501Z,2.58
2023-02-05T08:56:03.259Z,3.53
2023-02-05T08:58:31.296Z,3.15
2023-02-05T09:01:03.769Z,0.93
2023-02-05T09:03:31.291Z,2.30
2023-02-05T09:05:59.423Z,2.15
2023-02-05T09:08:29.369Z,2.70
2023-02-05T09:10:57.658Z,2.15
2023-02-05T09:13:25.960Z,1.35
2023-02-05T09:15:53.280Z,1.20
2023-02-05T09:18:20.657Z,1.02
2023-02-05T09:20:50.050Z,1.40
2023-02-05T09:23:19.140Z,2.13
2023-02-05T09:25:46.307Z,3.20
2023-02-05T09:28:15.119Z,3.65
2023-02-05T09:30:45.287Z,1.75
2023-02-05T09:33:13.742Z,2.78
2023-02-05T09:35:41.595Z,1.20
2023-02-05T09:38:09.656Z,2.35
2023-02-05T09:40:51.028Z,2.67
2023-02-05T09:43:56.785Z,0.93
2023-02-05T09:46:43.277Z,3.67
2023-02-05T09:49:13.317Z,2.63
2023-02-05T09:51:50.790Z,2.72
2023-02-05T09:54:17.786Z,1.05
2023-02-05T09:56:46.910Z,1.83
2023-02-05T09:59:19.479Z,1.58
2023-02-05T10:01:57.688Z,1.70
2023-02-05T10:04:25.585Z,3.47
2023-02-05T10:07:16.507Z,5.47
2023-02-05T10:09:58.774Z,1.90
2023-02-05T10:12:25.730Z,9.88
2023-02-05T10:15:17.517Z,2.58
2023-02-05T10:18:09.128Z,2.67
2023-02-05T10:20:36.055Z,3.60
2023-02-05T10:23:16.311Z,2.85
2023-02-05T10:25:50.655Z,3.58
2023-02-05T10:28:20.533Z,1.95
2023-02-05T10:31:06.367Z,2.05
2023-02-05T10:33:56.274Z,1.98
2023-02-05T10:36:27.843Z,1.52
2023-02-05T10:38:56.901Z,2.22
2023-02-05T10:41:39.064Z,1.50
2023-02-05T10:44:34.679Z,2.42
2023-02-05T10:47:14.653Z,2.78
2023-02-05T10:49:56.781Z,2.20
2023-02-05T10:52:24.168Z,2.58
2023-02-05T10:54:51.327Z,1.00
2023-02-05T10:57:21.808Z,0.80
2023-02-05T11:00:02.434Z,2.53
2023-02-05T11:02:38.826Z,1.52
2023-02-05T11:05:31.631Z,1.60
2023-02-05T11:07:58.794Z,1.27
2023-02-05T11:10:35.342Z,1.80
2023-02-05T11:13:15.321Z,6.88
2023-02-05T11:15:54.475Z,2.05
2023-02-05T11:18:28.523Z,1.48
2023-02-05T11:21:01.465Z,1.17
2023-02-05T11:23:32.444Z,1.60
2023-02-05T11:26:18.158Z,5.38
2023-02-05T11:28:45.313Z,1.60
2023-02-05T11:31:27.512Z,1.90
2023-02-05T11:34:16.067Z,1.10
2023-02-05T11:36:53.047Z,1.45
2023-02-05T11:39:36.122Z,0.98
2023-02-05T11:42:22.807Z,1.52
2023-02-05T11:44:59.593Z,1.50
2023-02-05T11:47:34.570Z,1.85
2023-02-05T11:50:04.350Z,2.60
2023-02-05T11:52:37.050Z,1.63
2023-02-05T11:55:05.684Z,1.63
2023-02-05T11:57:39.703Z,1.35
2023-02-05T12:00:10.168Z,1.58
2023-02-05T12:02:40.083Z,2.35
2023-02-05T12:05:13.096Z,2.45
2023-02-05T12:07:54.419Z,1.50
2023-02-05T12:11:02.019Z,1.42
2023-02-05T12:13:54.719Z,1.23
2023-02-05T12:16:48.388Z,1.30
2023-02-05T12:19:34.693Z,1.85
2023-02-05T12:22:13.949Z,2.25
2023-02-05T12:25:05.995Z,1.98
2023-02-05T12:27:38.941Z,1.70
2023-02-05T12:30:39.485Z,3.55
2023-02-05T12:33:06.437Z,4.00
2023-02-05T12:36:04.134Z,2.10
2023-02-05T12:38:49.753Z,1.77
2023-02-05T12:41:38.262Z,1.30
2023-02-05T12:44:44.784Z,2.90
2023-02-05T12:47:40.552Z,2.03
2023-02-05T12:50:30.646Z,2.10
2023-02-05T12:53:23.665Z,4.70
2023-02-05T12:56:22.125Z,4.15
2023-02-05T12:59:00.594Z,2.20
2023-02-05T13:01:48.724Z,2.28
2023-02-05T13:04:27.633Z,4.35
2023-02-05T13:07:09.087Z,3.50
2023-02-05T13:10:07.964Z,5.10
2023-02-05T13:12:39.857Z,3.38
2023-02-05T13:15:19.262Z,4.13
2023-02-05T13:17:57.886Z,3.55
2023-02-05T13:20:49.968Z,3.83
2023-02-05T13:23:37.259Z,3.58
2023-02-05T13:26:25.639Z,3.78
2023-02-05T13:29:05.509Z,2.33
2023-02-05T13:31:44.141Z,3.83
2023-02-05T13:34:15.979Z,2.28
2023-02-05T13:37:02.236Z,2.28
2023-02-05T13:40:09.717Z,3.80
2023-02-05T13:42:39.992Z,3.30
2023-02-05T13:45:25.198Z,4.53
2023-02-05T13:48:17.368Z,5.22
2023-02-05T13:51:06.396Z,2.55
2023-02-05T13:54:10.875Z,2.08
2023-02-05T13:56:44.741Z,2.40
2023-02-05T13:59:41.121Z,3.00
2023-02-05T14:02:45.542Z,3.17
2023-02-05T14:05:14.084Z,3.60
2023-02-05T14:07:47.343Z,2.20
2023-02-05T14:10:41.219Z,3.03
2023-02-05T14:13:29.729Z,3.35
2023-02-05T14:16:01.067Z,2.78
2023-02-05T14:18:40.768Z,3.40
2023-02-05T14:21:33.324Z,5.13
2023-02-05T14:24:39.432Z,2.58
2023-02-05T14:27:44.527Z,3.00
2023-02-05T14:30:30.940Z,2.22
2023-02-05T14:33:00.710Z,2.58
2023-02-05T14:35:33.480Z,3.20
2023-02-05T14:38:22.650Z,2.55
2023-02-05T14:41:16.979Z,3.00
2023-02-05T14:43:48.078Z,3.03
2023-02-05T14:46:26.428Z,3.42
2023-02-05T14:48:59.737Z,3.42
2023-02-05T14:51:35.382Z,3.13
2023-02-05T14:54:07.345Z,3.05
2023-02-05T14:57:08.374Z,4.40
2023-02-05T14:59:46.438Z,5.35
2023-02-05T15:02:54.828Z,9.23
2023-02-05T15:05:33.799Z,4.50
2023-02-05T15:08:26.519Z,3.35
2023-02-05T15:11:26.912Z,3.13
2023-02-05T15:14:21.891Z,3.15
2023-02-05T15:17:14.186Z,6.40
2023-02-05T15:19:49.943Z,2.50
2023-02-05T15:22:57.625Z,2.97
2023-02-05T15:25:45.762Z,5.65
2023-02-05T15:28:31.800Z,4.78
2023-02-05T15:31:46.274Z,2.88
2023-02-05T15:34:40.168Z,3.72
2023-02-05T15:37:33.159Z,3.10
2023-02-05T15:40:11.391Z,5.70
2023-02-05T15:42:42.515Z,4.63
2023-02-05T15:45:29.895Z,3.50
2023-02-05T15:48:03.674Z,8.27
2023-02-05T15:50:31.891Z,9.85
2023-02-05T15:53:00.187Z,5.75
2023-02-05T15:55:29.848Z,6.65
2023-02-05T15:58:02.970Z,6.50
2023-02-05T16:00:32.905Z,6.65
2023-02-05T16:03:44.517Z,3.80
2023-02-05T16:06:20.782Z,6.32
2023-02-05T16:08:51.792Z,4.15
2023-02-05T16:11:34.972Z,3.08
2023-02-05T16:14:24.862Z,3.72
2023-02-05T16:17:05.034Z,6.95
2023-02-05T16:19:39.176Z,4.07
2023-02-05T16:22:53.418Z,6.38
2023-02-05T16:25:43.678Z,3.92
2023-02-05T16:28:23.604Z,5.22
2023-02-05T16:30:55.119Z,3.33
2023-02-05T16:33:37.539Z,3.65
2023-02-05T16:36:14.407Z,7.30
2023-02-05T16:38:42.450Z,6.93
2023-02-05T16:41:32.348Z,7.18
2023-02-05T16:44:04.855Z,7.85
2023-02-05T16:46:35.136Z,10.95
2023-02-05T16:49:28.662Z,12.10
2023-02-05T16:51:56.545Z,9.32
2023-02-05T16:54:34.243Z,5.70
2023-02-05T16:57:17.524Z,9.68
2023-02-05T16:59:53.386Z,13.23
2023-02-05T17:02:43.058Z,8.68
2023-02-05T17:05:29.260Z,6.22
2023-02-05T17:08:02.704Z,6.93
2023-02-05T17:10:30.741Z,4.65
2023-02-05T17:13:06.592Z,5.70
2023-02-05T17:15:43.614Z,3.85
2023-02-05T17:18:32.850Z,5.25
2023-02-05T17:21:33.395Z,5.07
2023-02-05T17:24:06.888Z,4.72
2023-02-05T17:26:41.228Z,4.10
2023-02-05T17:29:16.347Z,6.43
2023-02-05T17:31:44.613Z,6.43
2023-02-05T17:34:13.390Z,6.68
2023-02-05T17:36:40.896Z,4.82
2023-02-05T17:39:08.954Z,6.47
2023-02-05T17:41:56.814Z,5.43
2023-02-05T17:44:24.713Z,4.60
2023-02-05T17:46:56.078Z,4.10
2023-02-05T17:49:26.950Z,5.90
2023-02-05T17:51:56.011Z,5.35
2023-02-05T17:54:26.352Z,7.53
2023-02-05T17:57:15.413Z,9.05
2023-02-05T17:59:45.769Z,6.38
2023-02-05T18:02:15.501Z,7.22
2023-02-05T18:04:45.841Z,4.82
2023-02-05T18:07:25.664Z,9.38
2023-02-05T18:09:53.153Z,7.47
2023-02-05T18:12:20.778Z,5.95
2023-02-05T18:14:48.397Z,7.50
2023-02-05T18:17:16.026Z,8.00
2023-02-05T18:19:47.597Z,5.45
2023-02-05T18:22:15.554Z,4.40
2023-02-05T18:24:43.445Z,6.28
2023-02-05T18:27:12.673Z,8.70
2023-02-05T18:29:42.719Z,5.85
2023-02-05T18:32:13.687Z,4.78
2023-02-05T18:34:42.137Z,5.10
2023-02-05T18:37:12.254Z,7.07
2023-02-05T18:39:40.021Z,11.68
2023-02-05T18:42:07.531Z,6.93
2023-02-05T18:44:35.493Z,7.85
2023-02-05T18:47:06.557Z,20.55
2023-02-05T18:49:35.558Z,11.77
2023-02-05T18:52:06.388Z,7.90
2023-02-05T18:54:34.421Z,9.75
2023-02-05T18:57:02.534Z,10.85
2023-02-05T18:59:31.697Z,11.18
2023-02-05T19:01:59.570Z,18.13
2023-02-05T19:04:28.124Z,11.00
2023-02-05T19:06:56.257Z,11.65
2023-02-05T19:09:24.910Z,15.25
2023-02-05T19:11:54.033Z,12.77
2023-02-05T19:14:24.242Z,10.75
2023-02-05T19:16:53.038Z,17.70
2023-02-05T19:19:25.017Z,15.60
2023-02-05T19:21:56.819Z,12.55
2023-02-05T19:24:24.690Z,15.77
2023-02-05T19:26:57.248Z,13.77
2023-02-05T19:29:26.302Z,13.30
2023-02-05T19:31:54.461Z,14.15
2023-02-05T19:34:22.803Z,15.05
2023-02-05T19:36:50.377Z,14.48
2023-02-05T19:39:18.203Z,12.27
2023-02-05T19:41:46.238Z,9.73
2023-02-05T19:44:14.440Z,12.63
2023-02-05T19:46:47.431Z,24.27
2023-02-05T19:49:21.818Z,13.57
2023-02-05T19:51:54.933Z,7.20
2023-02-05T19:54:23.264Z,9.30
2023-02-05T19:56:51.906Z,9.98
2023-02-05T19:59:19.963Z,8.98
2023-02-05T20:01:48.198Z,10.93
2023-02-05T20:04:47.789Z,7.35
2023-02-05T20:07:15.705Z,16.00
2023-02-05T20:09:43.571Z,13.95
2023-02-05T20:12:23.942Z,17.00
2023-02-05T20:14:51.650Z,22.38
2023-02-05T20:17:19.419Z,21.33
2023-02-05T20:19:48.348Z,16.70
2023-02-05T20:22:19.072Z,17.65
2023-02-05T20:24:50.292Z,13.55
2023-02-05T20:27:18.650Z,9.55
2023-02-05T20:30:06.626Z,11.05
2023-02-05T20:32:34.989Z,17.77
2023-02-05T20:35:02.845Z,22.92
2023-02-05T20:37:30.657Z,28.35
2023-02-05T20:39:58.875Z,10.15
2023-02-05T20:42:27.000Z,9.73
2023-02-05T20:44:54.672Z,10.98
2023-02-05T20:47:22.547Z,8.93
2023-02-05T20:49:50.017Z,9.65
2023-02-05T20:52:17.692Z,9.02
2023-02-05T20:54:45.175Z,13.57
2023-02-05T20:57:12.567Z,8.05
2023-02-05T20:59:40.031Z,9.02
2023-02-05T21:02:08.152Z,12.20
2023-02-05T21:04:37.473Z,12.75
2023-02-05T21:07:05.021Z,10.95
2023-02-05T21:09:32.632Z,13.63
2023-02-05T21:12:00.459Z,9.88
2023-02-05T21:14:28.041Z,10.32
2023-02-05T21:16:55.216Z,11.25
2023-02-05T21:19:24.898Z,10.57
2023-02-05T21:21:52.468Z,10.90
2023-02-05T21:24:21.599Z,8.88
2023-02-05T21:26:51.687Z,6.75
2023-02-05T21:29:21.103Z,8.60
2023-02-05T21:31:53.271Z,8.80
2023-02-05T21:34:23.188Z,8.40
2023-02-05T21:36:51.635Z,11.70
2023-02-05T21:39:22.778Z,11.82
2023-02-05T21:41:54.588Z,10.38
2023-02-05T21:44:22.158Z,9.25
2023-02-05T21:46:49.237Z,9.77
2023-02-05T21:49:16.419Z,8.27
2023-02-05T21:51:43.548Z,10.82
2023-02-05T21:54:11.596Z,7.70
2023-02-05T21:56:41.634Z,11.15
2023-02-05T21:59:11.265Z,10.15
2023-02-05T22:01:38.715Z,10.38
2023-02-05T22:04:10.949Z,7.03
2023-02-05T22:06:38.801Z,12.77
2023-02-05T22:09:08.890Z,6.50
2023-02-05T22:11:37.212Z,11.07
2023-02-05T22:14:04.298Z,16.38
2023-02-05T22:16:33.458Z,15.25
2023-02-05T22:19:02.199Z,15.18
2023-02-05T22:21:32.492Z,13.63
2023-02-05T22:24:01.626Z,11.88
2023-02-05T22:26:34.434Z,11.95
2023-02-05T22:29:04.807Z,10.63
2023-02-05T22:31:32.539Z,8.75
2023-02-05T22:33:59.775Z,10.73
2023-02-05T22:36:30.037Z,11.00
2023-02-05T22:38:57.654Z,12.93
2023-02-05T22:41:33.663Z,10.82
2023-02-05T22:44:02.107Z,6.75
2023-02-05T22:46:31.853Z,8.20
2023-02-05T22:49:00.874Z,4.90
2023-02-05T22:51:31.810Z,9.43
2023-02-05T22:54:00.124Z,8.93
2023-02-05T22:56:28.704Z,14.52
2023-02-05T22:58:56.773Z,17.35
2023-02-05T23:01:26.330Z,14.80
2023-02-05T23:03:54.139Z,14.05
2023-02-05T23:06:30.759Z,13.60
2023-02-05T23:09:01.695Z,14.13
2023-02-05T23:11:31.053Z,12.98
2023-02-05T23:13:59.958Z,8.65
2023-02-05T23:16:40.165Z,8.13
2023-02-05T23:19:13.965Z,7.80
2023-02-05T23:21:41.156Z,7.40
2023-02-05T23:24:08.927Z,9.10
2023-02-05T23:26:40.226Z,10.90
2023-02-05T23:29:07.596Z,8.80
2023-02-05T23:31:34.944Z,9.15
2023-02-05T23:34:03.577Z,10.65
2023-02-05T23:36:30.842Z,9.88
2023-02-05T23:38:58.120Z,8.38
2023-02-05T23:41:37.621Z,9.85
2023-02-05T23:44:18.052Z,6.40
2023-02-05T23:46:46.783Z,8.75
2023-02-05T23:49:14.951Z,7.50
2023-02-05T23:51:42.018Z,8.45
2023-02-05T23:54:10.829Z,10.27
2023-02-05T23:56:38.076Z,7.25
2023-02-05T23:59:06.950Z,11.93
